sensor_id;sensor_type;location;lat;lon;timestamp;pressure;altitude;pressure_sealevel;temperature;humidity
38939;BME280;24211;49.980;19.776;2023-02-22T00:01:54;99325.38;;;6.59;100.00
38939;BME280;24211;49.980;19.776;2023-02-22T00:04:37;99327.19;;;6.58;100.00
38939;BME280;24211;49.980;19.776;2023-02-22T00:07:07;99331.91;;;6.56;100.00
38939;BME280;24211;49.980;19.776;2023-02-22T00:09:34;99324.34;;;6.53;100.00
38939;BME280;24211;49.980;19.776;2023-02-22T00:12:02;99331.28;;;6.54;100.00
38939;BME280;24211;49.980;19.776;2023-02-22T00:14:29;99328.00;;;6.52;100.00
38939;BME280;24211;49.980;19.776;2023-02-22T00:16:56;99326.34;;;6.51;100.00
38939;BME280;24211;49.980;19.776;2023-02-22T00:19:26;99331.06;;;6.49;100.00
38939;BME280;24211;49.980;19.776;2023-02-22T00:21:56;99336.56;;;6.48;100.00
38939;BME280;24211;49.980;19.776;2023-02-22T00:24:24;99339.41;;;6.46;100.00
38939;BME280;24211;49.980;19.776;2023-02-22T00:26:53;99332.47;;;6.45;100.00
38939;BME280;24211;49.980;19.776;2023-02-22T00:29:24;99330.22;;;6.42;100.00
38939;BME280;24211;49.980;19.776;2023-02-22T00:31:52;99336.53;;;6.41;100.00
38939;BME280;24211;49.980;19.776;2023-02-22T00:34:20;99345.53;;;6.40;100.00
38939;BME280;24211;49.980;19.776;2023-02-22T00:36:49;99343.88;;;6.39;100.00
38939;BME280;24211;49.980;19.776;2023-02-22T00:39:16;99352.88;;;6.38;100.00
38939;BME280;24211;49.980;19.776;2023-02-22T00:41:44;99349.56;;;6.36;100.00
38939;BME280;24211;49.980;19.776;2023-02-22T00:44:11;99350.59;;;6.35;100.00
38939;BME280;24211;49.980;19.776;2023-02-22T00:46:39;99353.63;;;6.32;100.00
38939;BME280;24211;49.980;19.776;2023-02-22T00:49:06;99346.72;;;6.31;100.00
38939;BME280;24211;49.980;19.776;2023-02-22T00:51:33;99354.84;;;6.30;100.00
38939;BME280;24211;49.980;19.776;2023-02-22T00:54:01;99356.88;;;6.28;100.00
38939;BME280;24211;49.980;19.776;2023-02-22T00:56:28;99357.25;;;6.25;100.00
38939;BME280;24211;49.980;19.776;2023-02-22T00:58:55;99354.81;;;6.23;100.00
38939;BME280;24211;49.980;19.776;2023-02-22T01:01:22;99355.44;;;6.25;100.00
38939;BME280;24211;49.980;19.776;2023-02-22T01:03:50;99362.78;;;6.23;100.00
38939;BME280;24211;49.980;19.776;2023-02-22T01:06:18;99358.47;;;6.22;100.00
38939;BME280;24211;49.980;19.776;2023-02-22T01:08:47;99358.47;;;6.22;100.00
38939;BME280;24211;49.980;19.776;2023-02-22T01:11:16;99360.13;;;6.23;100.00
38939;BME280;24211;49.980;19.776;2023-02-22T01:13:44;99352.34;;;6.22;100.00
38939;BME280;24211;49.980;19.776;2023-02-22T01:16:12;99355.22;;;6.20;100.00
38939;BME280;24211;49.980;19.776;2023-02-22T01:18:39;99359.50;;;6.21;100.00
38939;BME280;24211;49.980;19.776;2023-02-22T01:21:06;99359.69;;;6.20;100.00
38939;BME280;24211;49.980;19.776;2023-02-22T01:23:34;99361.34;;;6.21;100.00
38939;BME280;24211;49.980;19.776;2023-02-22T01:26:04;99358.84;;;6.19;100.00
38939;BME280;24211;49.980;19.776;2023-02-22T01:28:33;99356.22;;;6.19;100.00
38939;BME280;24211;49.980;19.776;2023-02-22T01:31:01;99357.25;;;6.18;100.00
38939;BME280;24211;49.980;19.776;2023-02-22T01:33:29;99359.28;;;6.16;100.00
38939;BME280;24211;49.980;19.776;2023-02-22T01:35:57;99353.16;;;6.16;100.00
38939;BME280;24211;49.980;19.776;2023-02-22T01:38:26;99352.31;;;6.15;100.00
38939;BME280;24211;49.980;19.776;2023-02-22T01:40:54;99344.34;;;6.15;100.00
38939;BME280;24211;49.980;19.776;2023-02-22T01:43:28;99356.63;;;6.16;100.00
38939;BME280;24211;49.980;19.776;2023-02-22T01:49:02;99354.72;;;6.10;100.00
38939;BME280;24211;49.980;19.776;2023-02-22T01:51:42;99361.06;;;6.09;100.00
38939;BME280;24211;49.980;19.776;2023-02-22T01:54:19;99354.94;;;6.09;100.00
38939;BME280;24211;49.980;19.776;2023-02-22T01:59:31;99357.16;;;6.05;100.00
38939;BME280;24211;49.980;19.776;2023-02-22T02:02:00;99360.84;;;6.04;100.00
38939;BME280;24211;49.980;19.776;2023-02-22T02:04:32;99354.50;;;6.05;100.00
38939;BME280;24211;49.980;19.776;2023-02-22T02:07:04;99357.16;;;6.05;100.00
38939;BME280;24211;49.980;19.776;2023-02-22T02:09:41;99360.84;;;6.04;100.00
38939;BME280;24211;49.980;19.776;2023-02-22T02:12:14;99360.00;;;6.04;100.00
38939;BME280;24211;49.980;19.776;2023-02-22T02:14:42;99355.91;;;6.01;100.00
38939;BME280;24211;49.980;19.776;2023-02-22T02:17:17;99348.94;;;6.00;100.00
38939;BME280;24211;49.980;19.776;2023-02-22T02:20:03;99342.81;;;6.00;100.00
38939;BME280;24211;49.980;19.776;2023-02-22T02:23:21;99354.25;;;6.00;100.00
38939;BME280;24211;49.980;19.776;2023-02-22T02:26:31;99361.34;;;5.93;100.00
38939;BME280;24211;49.980;19.776;2023-02-22T02:32:21;99355.44;;;5.91;100.00
38939;BME280;24211;49.980;19.776;2023-02-22T02:38:03;99354.44;;;5.92;100.00
38939;BME280;24211;49.980;19.776;2023-02-22T02:46:37;99361.97;;;5.95;100.00
38939;BME280;24211;49.980;19.776;2023-02-22T02:49:21;99361.97;;;5.95;100.00
38939;BME280;24211;49.980;19.776;2023-02-22T02:51:53;99357.50;;;5.96;100.00
38939;BME280;24211;49.980;19.776;2023-02-22T02:54:23;99355.88;;;5.95;100.00
38939;BME280;24211;49.980;19.776;2023-02-22T02:56:51;99361.34;;;5.93;100.00
38939;BME280;24211;49.980;19.776;2023-02-22T02:59:35;99357.47;;;5.89;100.00
38939;BME280;24211;49.980;19.776;2023-02-22T03:11:59;99362.66;;;5.82;100.00
38939;BME280;24211;49.980;19.776;2023-02-22T03:14:40;99372.47;;;5.82;100.00
38939;BME280;24211;49.980;19.776;2023-02-22T03:21:20;99368.97;;;5.75;100.00
38939;BME280;24211;49.980;19.776;2023-02-22T03:23:40;99374.81;;;5.70;100.00
38939;BME280;24211;49.980;19.776;2023-02-22T03:26:15;99380.94;;;5.71;100.00
38939;BME280;24211;49.980;19.776;2023-02-22T03:28:48;99374.81;;;5.70;100.00
38939;BME280;24211;49.980;19.776;2023-02-22T03:31:26;99379.50;;;5.68;100.00
38939;BME280;24211;49.980;19.776;2023-02-22T03:34:05;99380.94;;;5.71;100.00
38939;BME280;24211;49.980;19.776;2023-02-22T03:36:46;99380.13;;;5.70;100.00
38939;BME280;24211;49.980;19.776;2023-02-22T03:39:17;99380.94;;;5.71;100.00
38939;BME280;24211;49.980;19.776;2023-02-22T03:41:48;99389.53;;;5.73;100.00
38939;BME280;24211;49.980;19.776;2023-02-22T03:44:26;99372.00;;;5.72;100.00
38939;BME280;24211;49.980;19.776;2023-02-22T03:46:56;99389.53;;;5.73;100.00
38939;BME280;24211;49.980;19.776;2023-02-22T03:49:36;99387.91;;;5.72;100.00
38939;BME280;24211;49.980;19.776;2023-02-22T03:52:07;99390.72;;;5.70;100.00
38939;BME280;24211;49.980;19.776;2023-02-22T03:54:39;99387.91;;;5.72;100.00
38939;BME280;24211;49.980;19.776;2023-02-22T03:57:17;99389.94;;;5.70;100.00
38939;BME280;24211;49.980;19.776;2023-02-22T03:59:51;99380.13;;;5.70;100.00
38939;BME280;24211;49.980;19.776;2023-02-22T04:02:20;99387.91;;;5.72;100.00
38939;BME280;24211;49.980;19.776;2023-02-22T04:04:50;99386.06;;;5.72;100.00
38939;BME280;24211;49.980;19.776;2023-02-22T04:07:18;99384.22;;;5.73;100.00
38939;BME280;24211;49.980;19.776;2023-02-22T04:09:45;99394.66;;;5.74;100.00
38939;BME280;24211;49.980;19.776;2023-02-22T04:12:13;99387.53;;;5.75;100.00
38939;BME280;24211;49.980;19.776;2023-02-22T04:15:13;99398.13;;;5.75;100.00
38939;BME280;24211;49.980;19.776;2023-02-22T04:17:42;99393.63;;;5.75;100.00
38939;BME280;24211;49.980;19.776;2023-02-22T04:20:13;99394.44;;;5.76;100.00
38939;BME280;24211;49.980;19.776;2023-02-22T04:22:47;99397.31;;;5.74;100.00
38939;BME280;24211;49.980;19.776;2023-02-22T04:25:14;99394.81;;;5.73;100.00
38939;BME280;24211;49.980;19.776;2023-02-22T04:27:43;99394.03;;;5.72;100.00
38939;BME280;24211;49.980;19.776;2023-02-22T04:30:11;99396.84;;;5.71;100.00
38939;BME280;24211;49.980;19.776;2023-02-22T04:32:39;99402.53;;;5.68;100.00
38939;BME280;24211;49.980;19.776;2023-02-22T04:35:07;99397.22;;;5.68;100.00
38939;BME280;24211;49.980;19.776;2023-02-22T04:37:34;99391.13;;;5.67;100.00
38939;BME280;24211;49.980;19.776;2023-02-22T04:40:05;99387.44;;;5.68;100.00
38939;BME280;24211;49.980;19.776;2023-02-22T04:42:37;99397.22;;;5.68;100.00
38939;BME280;24211;49.980;19.776;2023-02-22T04:45:07;99397.22;;;5.68;100.00
38939;BME280;24211;49.980;19.776;2023-02-22T04:47:36;99398.25;;;5.67;100.00
38939;BME280;24211;49.980;19.776;2023-02-22T04:50:06;99392.13;;;5.66;100.00
38939;BME280;24211;49.980;19.776;2023-02-22T04:52:34;99395.59;;;5.67;100.00
38939;BME280;24211;49.980;19.776;2023-02-22T04:55:01;99395.59;;;5.67;100.00
38939;BME280;24211;49.980;19.776;2023-02-22T04:57:32;99396.81;;;5.64;100.00
38939;BME280;24211;49.980;19.776;2023-02-22T04:59:59;99401.28;;;5.64;100.00
38939;BME280;24211;49.980;19.776;2023-02-22T05:02:27;99392.34;;;5.65;100.00
38939;BME280;24211;49.980;19.776;2023-02-22T05:04:54;99397.63;;;5.65;100.00
38939;BME280;24211;49.980;19.776;2023-02-22T05:07:22;99399.25;;;5.66;100.00
38939;BME280;24211;49.980;19.776;2023-02-22T05:09:49;99393.94;;;5.66;100.00
38939;BME280;24211;49.980;19.776;2023-02-22T05:12:16;99395.59;;;5.67;100.00
38939;BME280;24211;49.980;19.776;2023-02-22T05:14:43;99395.59;;;5.67;100.00
38939;BME280;24211;49.980;19.776;2023-02-22T05:17:10;99401.91;;;5.66;100.00
38939;BME280;24211;49.980;19.776;2023-02-22T05:19:37;99388.84;;;5.64;100.00
38939;BME280;24211;49.980;19.776;2023-02-22T05:22:05;99398.84;;;5.62;100.00
38939;BME280;24211;49.980;19.776;2023-02-22T05:24:32;99404.94;;;5.63;100.00
38939;BME280;24211;49.980;19.776;2023-02-22T05:26:59;99402.28;;;5.63;100.00
38939;BME280;24211;49.980;19.776;2023-02-22T05:29:27;99402.28;;;5.63;100.00
38939;BME280;24211;49.980;19.776;2023-02-22T05:31:55;99402.94;;;5.65;100.00
38939;BME280;24211;49.980;19.776;2023-02-22T05:34:24;99404.56;;;5.66;100.00
38939;BME280;24211;49.980;19.776;2023-02-22T05:36:51;99417.19;;;5.64;100.00
38939;BME280;24211;49.980;19.776;2023-02-22T05:39:18;99420.84;;;5.63;100.00
38939;BME280;24211;49.980;19.776;2023-02-22T05:41:45;99416.56;;;5.62;100.00
38939;BME280;24211;49.980;19.776;2023-02-22T05:44:12;99410.63;;;5.60;100.00
38939;BME280;24211;49.980;19.776;2023-02-22T05:46:40;99413.91;;;5.62;100.00
38939;BME280;24211;49.980;19.776;2023-02-22T05:49:07;99419.22;;;5.62;100.00
38939;BME280;24211;49.980;19.776;2023-02-22T05:51:34;99422.88;;;5.61;100.00
38939;BME280;24211;49.980;19.776;2023-02-22T05:54:03;99425.72;;;5.59;100.00
38939;BME280;24211;49.980;19.776;2023-02-22T05:56:31;99426.91;;;5.57;100.00
38939;BME280;24211;49.980;19.776;2023-02-22T05:58:58;99432.22;;;5.57;100.00
38939;BME280;24211;49.980;19.776;2023-02-22T06:01:26;99434.88;;;5.57;100.00
38939;BME280;24211;49.980;19.776;2023-02-22T06:03:53;99436.91;;;5.55;100.00
38939;BME280;24211;49.980;19.776;2023-02-22T06:06:21;99436.91;;;5.55;100.00
38939;BME280;24211;49.980;19.776;2023-02-22T06:08:48;99439.56;;;5.55;100.00
38939;BME280;24211;49.980;19.776;2023-02-22T06:11:16;99445.69;;;5.55;100.00
38939;BME280;24211;49.980;19.776;2023-02-22T06:13:51;99448.13;;;5.57;100.00
38939;BME280;24211;49.980;19.776;2023-02-22T06:16:20;99460.34;;;5.58;100.00
38939;BME280;24211;49.980;19.776;2023-02-22T06:18:48;99454.44;;;5.56;100.00
38939;BME280;24211;49.980;19.776;2023-02-22T06:21:16;99459.72;;;5.56;100.00
38939;BME280;24211;49.980;19.776;2023-02-22T06:23:43;99464.03;;;5.57;100.00
38939;BME280;24211;49.980;19.776;2023-02-22T06:26:11;99458.72;;;5.57;100.00
38939;BME280;24211;49.980;19.776;2023-02-22T06:28:38;99470.16;;;5.57;100.00
38939;BME280;24211;49.980;19.776;2023-02-22T06:31:05;99471.97;;;5.57;100.00
38939;BME280;24211;49.980;19.776;2023-02-22T06:33:32;99464.88;;;5.57;100.00
38939;BME280;24211;49.980;19.776;2023-02-22T06:36:00;99467.31;;;5.59;100.00
38939;BME280;24211;49.980;19.776;2023-02-22T06:38:27;99467.94;;;5.61;100.00
38939;BME280;24211;49.980;19.776;2023-02-22T06:40:54;99472.03;;;5.63;100.00
38939;BME280;24211;49.980;19.776;2023-02-22T06:43:23;99475.53;;;5.64;100.00
38939;BME280;24211;49.980;19.776;2023-02-22T06:45:51;99471.88;;;5.65;100.00
38939;BME280;24211;49.980;19.776;2023-02-22T06:48:18;99472.28;;;5.68;100.00
38939;BME280;24211;49.980;19.776;2023-02-22T06:50:45;99480.09;;;5.70;100.00
38939;BME280;24211;49.980;19.776;2023-02-22T06:53:13;99483.72;;;5.69;100.00
38939;BME280;24211;49.980;19.776;2023-02-22T06:55:40;99483.34;;;5.72;100.00
38939;BME280;24211;49.980;19.776;2023-02-22T06:58:07;99484.97;;;5.73;100.00
38939;BME280;24211;49.980;19.776;2023-02-22T07:00:34;99489.09;;;5.75;100.00
38939;BME280;24211;49.980;19.776;2023-02-22T07:03:03;99486.25;;;5.77;100.00
38939;BME280;24211;49.980;19.776;2023-02-22T07:05:31;99487.88;;;5.78;100.00
38939;BME280;24211;49.980;19.776;2023-02-22T07:08:05;99497.50;;;5.79;100.00
38939;BME280;24211;49.980;19.776;2023-02-22T07:10:35;99495.47;;;5.81;100.00
38939;BME280;24211;49.980;19.776;2023-02-22T07:13:04;99498.13;;;5.81;100.00
38939;BME280;24211;49.980;19.776;2023-02-22T07:15:33;99491.81;;;5.82;100.00
38939;BME280;24211;49.980;19.776;2023-02-22T07:18:02;99496.91;;;5.83;100.00
38939;BME280;24211;49.980;19.776;2023-02-22T07:20:30;99494.09;;;5.85;100.00
38939;BME280;24211;49.980;19.776;2023-02-22T07:22:58;99497.75;;;5.84;100.00
38939;BME280;24211;49.980;19.776;2023-02-22T07:25:25;99494.09;;;5.85;100.00
38939;BME280;24211;49.980;19.776;2023-02-22T07:27:52;99498.41;;;5.86;100.00
38939;BME280;24211;49.980;19.776;2023-02-22T07:30:28;99492.72;;;5.89;100.00
38939;BME280;24211;49.980;19.776;2023-02-22T07:33:00;99495.00;;;5.92;100.00
38939;BME280;24211;49.980;19.776;2023-02-22T07:35:32;99498.91;;;5.96;100.00
38939;BME280;24211;49.980;19.776;2023-02-22T07:38:06;99498.72;;;5.98;100.00
38939;BME280;24211;49.980;19.776;2023-02-22T07:40:37;99497.50;;;6.00;100.00
38939;BME280;24211;49.980;19.776;2023-02-22T07:43:23;99503.44;;;6.02;100.00
38939;BME280;24211;49.980;19.776;2023-02-22T07:45:55;99498.78;;;6.04;100.00
38939;BME280;24211;49.980;19.776;2023-02-22T07:48:26;99497.59;;;6.07;100.00
38939;BME280;24211;49.980;19.776;2023-02-22T07:50:55;99503.31;;;6.10;100.00
38939;BME280;24211;49.980;19.776;2023-02-22T07:53:27;99490.28;;;6.15;100.00
38939;BME280;24211;49.980;19.776;2023-02-22T07:56:02;99493.56;;;6.17;100.00
38939;BME280;24211;49.980;19.776;2023-02-22T07:58:31;99494.84;;;6.21;100.00
38939;BME280;24211;49.980;19.776;2023-02-22T08:00:59;99502.22;;;6.26;100.00
38939;BME280;24211;49.980;19.776;2023-02-22T08:03:33;99495.50;;;6.30;100.00
38939;BME280;24211;49.980;19.776;2023-02-22T08:06:05;99498.59;;;6.33;100.00
38939;BME280;24211;49.980;19.776;2023-02-22T08:08:32;99501.50;;;6.38;100.00
38939;BME280;24211;49.980;19.776;2023-02-22T08:11:00;99502.97;;;6.41;100.00
38939;BME280;24211;49.980;19.776;2023-02-22T08:13:28;99508.06;;;6.42;100.00
38939;BME280;24211;49.980;19.776;2023-02-22T08:15:55;99506.84;;;6.45;100.00
38939;BME280;24211;49.980;19.776;2023-02-22T08:18:24;99506.47;;;6.48;100.00
38939;BME280;24211;49.980;19.776;2023-02-22T08:20:53;99512.66;;;6.55;100.00
38939;BME280;24211;49.980;19.776;2023-02-22T08:23:23;99500.44;;;6.61;100.00
38939;BME280;24211;49.980;19.776;2023-02-22T08:25:52;99496.38;;;6.65;100.00
38939;BME280;24211;49.980;19.776;2023-02-22T08:28:22;99499.63;;;6.67;100.00
38939;BME280;24211;49.980;19.776;2023-02-22T08:30:51;99508.66;;;6.72;100.00
38939;BME280;24211;49.980;19.776;2023-02-22T08:33:19;99495.81;;;6.76;100.00
38939;BME280;24211;49.980;19.776;2023-02-22T08:35:48;99509.75;;;6.78;100.00
38939;BME280;24211;49.980;19.776;2023-02-22T08:38:29;99509.16;;;6.82;100.00
38939;BME280;24211;49.980;19.776;2023-02-22T08:40:57;99507.09;;;6.84;100.00
38939;BME280;24211;49.980;19.776;2023-02-22T08:43:24;99502.22;;;6.88;100.00
38939;BME280;24211;49.980;19.776;2023-02-22T08:45:52;99510.44;;;6.93;100.00
38939;BME280;24211;49.980;19.776;2023-02-22T08:48:22;99506.38;;;6.97;100.00
38939;BME280;24211;49.980;19.776;2023-02-22T08:50:50;99505.56;;;7.03;100.00
38939;BME280;24211;49.980;19.776;2023-02-22T08:53:17;99505.16;;;7.06;100.00
38939;BME280;24211;49.980;19.776;2023-02-22T08:55:45;99509.72;;;7.12;100.00
38939;BME280;24211;49.980;19.776;2023-02-22T08:58:15;99503.78;;;7.16;100.00
38939;BME280;24211;49.980;19.776;2023-02-22T09:00:43;99502.19;;;7.22;100.00
38939;BME280;24211;49.980;19.776;2023-02-22T09:03:13;99500.75;;;7.26;100.00
38939;BME280;24211;49.980;19.776;2023-02-22T09:05:47;99508.56;;;7.34;100.00
38939;BME280;24211;49.980;19.776;2023-02-22T09:08:16;99499.59;;;7.42;100.00
38939;BME280;24211;49.980;19.776;2023-02-22T09:10:43;99504.94;;;7.48;100.00
38939;BME280;24211;49.980;19.776;2023-02-22T09:13:11;99505.75;;;7.55;100.00
38939;BME280;24211;49.980;19.776;2023-02-22T09:15:39;99504.56;;;7.64;100.00
38939;BME280;24211;49.980;19.776;2023-02-22T09:18:08;99509.09;;;7.70;100.00
38939;BME280;24211;49.980;19.776;2023-02-22T09:20:36;99508.91;;;7.78;100.00
38939;BME280;24211;49.980;19.776;2023-02-22T09:23:06;99505.03;;;7.87;100.00
38939;BME280;24211;49.980;19.776;2023-02-22T09:25:35;99511.16;;;7.95;100.00
38939;BME280;24211;49.980;19.776;2023-02-22T09:28:05;99501.34;;;8.02;100.00
38939;BME280;24211;49.980;19.776;2023-02-22T09:30:34;99499.31;;;8.17;100.00
38939;BME280;24211;49.980;19.776;2023-02-22T09:33:13;99494.44;;;8.27;100.00
38939;BME280;24211;49.980;19.776;2023-02-22T09:35:44;99497.28;;;8.32;100.00
38939;BME280;24211;49.980;19.776;2023-02-22T09:38:16;99498.72;;;8.47;100.00
38939;BME280;24211;49.980;19.776;2023-02-22T09:40:50;99498.09;;;8.59;100.00
38939;BME280;24211;49.980;19.776;2023-02-22T09:46:25;99495.16;;;8.86;100.00
38939;BME280;24211;49.980;19.776;2023-02-22T09:51:57;99497.56;;;9.07;100.00
38939;BME280;24211;49.980;19.776;2023-02-22T09:54:49;99491.56;;;9.18;100.00
38939;BME280;24211;49.980;19.776;2023-02-22T09:57:36;99486.75;;;9.34;100.00
38939;BME280;24211;49.980;19.776;2023-02-22T10:00:19;99484.69;;;9.42;100.00
38939;BME280;24211;49.980;19.776;2023-02-22T10:05:51;99476.81;;;9.54;100.00
38939;BME280;24211;49.980;19.776;2023-02-22T10:08:20;99473.84;;;9.68;100.00
38939;BME280;24211;49.980;19.776;2023-02-22T10:10:58;99480.66;;;9.96;100.00
38939;BME280;24211;49.980;19.776;2023-02-22T10:13:49;99468.13;;;9.96;100.00
38939;BME280;24211;49.980;19.776;2023-02-22T10:16:34;99467.44;;;10.07;100.00
38939;BME280;24211;49.980;19.776;2023-02-22T10:19:18;99468.31;;;10.01;100.00
38939;BME280;24211;49.980;19.776;2023-02-22T10:22:25;99461.66;;;10.10;100.00
38939;BME280;24211;49.980;19.776;2023-02-22T10:25:14;99462.44;;;10.17;100.00
38939;BME280;24211;49.980;19.776;2023-02-22T10:28:02;99458.03;;;10.29;100.00
38939;BME280;24211;49.980;19.776;2023-02-22T10:30:38;99458.97;;;10.41;100.00
38939;BME280;24211;49.980;19.776;2023-02-22T10:33:17;99464.00;;;10.49;100.00
38939;BME280;24211;49.980;19.776;2023-02-22T10:35:47;99451.84;;;10.72;100.00
38939;BME280;24211;49.980;19.776;2023-02-22T10:38:19;99450.44;;;10.87;100.00
38939;BME280;24211;49.980;19.776;2023-02-22T10:41:18;99451.03;;;11.07;100.00
38939;BME280;24211;49.980;19.776;2023-02-22T10:43:46;99452.06;;;11.06;100.00
38939;BME280;24211;49.980;19.776;2023-02-22T10:46:17;99460.16;;;11.18;100.00
38939;BME280;24211;49.980;19.776;2023-02-22T10:48:53;99447.44;;;11.13;100.00
38939;BME280;24211;49.980;19.776;2023-02-22T10:51:22;99446.78;;;11.18;100.00
38939;BME280;24211;49.980;19.776;2023-02-22T10:56:50;99445.25;;;11.40;100.00
38939;BME280;24211;49.980;19.776;2023-02-22T10:59:33;99438.69;;;11.54;100.00
38939;BME280;24211;49.980;19.776;2023-02-22T11:02:32;99448.56;;;11.84;100.00
38939;BME280;24211;49.980;19.776;2023-02-22T11:05:03;99438.78;;;11.77;100.00
38939;BME280;24211;49.980;19.776;2023-02-22T11:07:34;99444.56;;;11.74;100.00
38939;BME280;24211;49.980;19.776;2023-02-22T11:10:07;99439.47;;;11.85;100.00
38939;BME280;24211;49.980;19.776;2023-02-22T11:12:40;99433.47;;;12.01;100.00
38939;BME280;24211;49.980;19.776;2023-02-22T11:17:46;99424.16;;;12.61;100.00
38939;BME280;24211;49.980;19.776;2023-02-22T11:20:33;99437.53;;;12.73;100.00
38939;BME280;24211;49.980;19.776;2023-02-22T11:23:05;99433.13;;;12.43;100.00
38939;BME280;24211;49.980;19.776;2023-02-22T11:25:37;99432.91;;;12.33;100.00
38939;BME280;24211;49.980;19.776;2023-02-22T11:28:27;99439.78;;;12.18;100.00
38939;BME280;24211;49.980;19.776;2023-02-22T11:31:17;99437.44;;;12.10;100.00
38939;BME280;24211;49.980;19.776;2023-02-22T11:33:59;99430.09;;;11.94;100.00
38939;BME280;24211;49.980;19.776;2023-02-22T11:36:41;99431.81;;;12.00;100.00
38939;BME280;24211;49.980;19.776;2023-02-22T11:39:30;99429.38;;;11.98;100.00
38939;BME280;24211;49.980;19.776;2023-02-22T11:42:26;99427.88;;;12.14;100.00
38939;BME280;24211;49.980;19.776;2023-02-22T11:48:04;99418.81;;;12.15;100.00
38939;BME280;24211;49.980;19.776;2023-02-22T11:50:56;99420.16;;;12.75;100.00
38939;BME280;24211;49.980;19.776;2023-02-22T11:54:02;99421.69;;;12.71;100.00
38939;BME280;24211;49.980;19.776;2023-02-22T11:56:47;99417.28;;;12.65;100.00
38939;BME280;24211;49.980;19.776;2023-02-22T11:59:41;99411.31;;;12.63;100.00
38939;BME280;24211;49.980;19.776;2023-02-22T12:05:42;99415.81;;;13.09;100.00
38939;BME280;24211;49.980;19.776;2023-02-22T12:18:03;99402.41;;;13.54;100.00
38939;BME280;24211;49.980;19.776;2023-02-22T12:20:57;99396.75;;;13.84;100.00
38939;BME280;24211;49.980;19.776;2023-02-22T12:23:47;99404.16;;;13.60;100.00
38939;BME280;24211;49.980;19.776;2023-02-22T12:26:43;99394.22;;;13.44;100.00
38939;BME280;24211;49.980;19.776;2023-02-22T12:29:42;99391.00;;;13.47;100.00
38939;BME280;24211;49.980;19.776;2023-02-22T12:32:40;99389.84;;;13.26;100.00
38939;BME280;24211;49.980;19.776;2023-02-22T12:38:29;99396.38;;;13.47;100.00
38939;BME280;24211;49.980;19.776;2023-02-22T12:41:11;99401.09;;;13.40;100.00
38939;BME280;24211;49.980;19.776;2023-02-22T12:43:45;99387.56;;;13.35;100.00
38939;BME280;24211;49.980;19.776;2023-02-22T12:46:33;99393.13;;;13.45;100.00
38939;BME280;24211;49.980;19.776;2023-02-22T12:49:15;99397.44;;;13.18;100.00
38939;BME280;24211;49.980;19.776;2023-02-22T12:51:59;99393.16;;;13.17;100.00
38939;BME280;24211;49.980;19.776;2023-02-22T12:55:22;99394.72;;;12.89;100.00
38939;BME280;24211;49.980;19.776;2023-02-22T13:00:59;99403.53;;;12.62;100.00
38939;BME280;24211;49.980;19.776;2023-02-22T13:03:38;99393.34;;;12.75;100.00
38939;BME280;24211;49.980;19.776;2023-02-22T13:06:49;99397.78;;;12.81;100.00
38939;BME280;24211;49.980;19.776;2023-02-22T13:15:44;99398.53;;;12.42;100.00
38939;BME280;24211;49.980;19.776;2023-02-22T13:18:59;99393.03;;;12.48;100.00
38939;BME280;24211;49.980;19.776;2023-02-22T13:24:31;99397.38;;;12.38;100.00
38939;BME280;24211;49.980;19.776;2023-02-22T13:27:49;99395.59;;;12.43;100.00
38939;BME280;24211;49.980;19.776;2023-02-22T13:30:42;99393.16;;;12.19;100.00
38939;BME280;24211;49.980;19.776;2023-02-22T13:36:52;99398.53;;;11.96;100.00
38939;BME280;24211;49.980;19.776;2023-02-22T13:46:17;99391.56;;;12.06;100.00
38939;BME280;24211;49.980;19.776;2023-02-22T13:52:05;99404.09;;;11.82;100.00
38939;BME280;24211;49.980;19.776;2023-02-22T13:54:41;99400.00;;;11.80;100.00
38939;BME280;24211;49.980;19.776;2023-02-22T13:57:23;99402.00;;;11.85;100.00
38939;BME280;24211;49.980;19.776;2023-02-22T14:13:21;99397.03;;;11.58;100.00
38939;BME280;24211;49.980;19.776;2023-02-22T14:19:00;99392.78;;;11.39;100.00
38939;BME280;24211;49.980;19.776;2023-02-22T14:21:28;99395.91;;;11.36;100.00
38939;BME280;24211;49.980;19.776;2023-02-22T14:24:08;99391.34;;;11.25;100.00
38939;BME280;24211;49.980;19.776;2023-02-22T14:26:38;99397.16;;;11.22;100.00
38939;BME280;24211;49.980;19.776;2023-02-22T14:34:15;99404.75;;;11.07;100.00
38939;BME280;24211;49.980;19.776;2023-02-22T14:37:05;99397.84;;;10.99;100.00
38939;BME280;24211;49.980;19.776;2023-02-22T14:39:48;99398.53;;;10.95;100.00
38939;BME280;24211;49.980;19.776;2023-02-22T14:48:26;99404.25;;;10.80;100.00
38939;BME280;24211;49.980;19.776;2023-02-22T14:51:18;99404.31;;;10.74;100.00
38939;BME280;24211;49.980;19.776;2023-02-22T14:54:08;99409.31;;;10.70;100.00
38939;BME280;24211;49.980;19.776;2023-02-22T14:57:20;99403.81;;;10.65;100.00
38939;BME280;24211;49.980;19.776;2023-02-22T15:00:16;99407.75;;;10.63;100.00
38939;BME280;24211;49.980;19.776;2023-02-22T15:02:51;99404.34;;;10.56;100.00
38939;BME280;24211;49.980;19.776;2023-02-22T15:05:21;99406.72;;;10.45;100.00
38939;BME280;24211;49.980;19.776;2023-02-22T15:08:01;99408.78;;;10.43;100.00
38939;BME280;24211;49.980;19.776;2023-02-22T15:10:50;99405.06;;;10.44;100.00
38939;BME280;24211;49.980;19.776;2023-02-22T15:13:20;99409.38;;;10.45;100.00
38939;BME280;24211;49.980;19.776;2023-02-22T15:16:01;99412.91;;;10.39;100.00
38939;BME280;24211;49.980;19.776;2023-02-22T15:18:51;99413.38;;;10.36;100.00
38939;BME280;24211;49.980;19.776;2023-02-22T15:21:24;99404.75;;;10.34;100.00
38939;BME280;24211;49.980;19.776;2023-02-22T15:23:55;99412.63;;;10.29;100.00